sensor_id;sensor_type;location;lat;lon;timestamp;P1;durP1;ratioP1;P2;durP2;ratioP2
23578;SDS011;11967;50.852;4.400;2022-09-03T00:01:49;11.85;;;2.42;;
23578;SDS011;11967;50.852;4.400;2022-09-03T00:07:27;5.57;;;2.20;;
23578;SDS011;11967;50.852;4.400;2022-09-03T00:10:01;5.47;;;2.33;;
23578;SDS011;11967;50.852;4.400;2022-09-03T00:12:31;4.32;;;2.30;;
23578;SDS011;11967;50.852;4.400;2022-09-03T00:15:03;7.15;;;2.38;;
23578;SDS011;11967;50.852;4.400;2022-09-03T00:17:31;4.38;;;2.42;;
23578;SDS011;11967;50.852;4.400;2022-09-03T00:20:19;6.93;;;2.33;;
23578;SDS011;11967;50.852;4.400;2022-09-03T00:22:58;3.97;;;2.13;;
23578;SDS011;11967;50.852;4.400;2022-09-03T00:28:13;5.13;;;2.22;;
23578;SDS011;11967;50.852;4.400;2022-09-03T00:30:45;5.93;;;2.30;;
23578;SDS011;11967;50.852;4.400;2022-09-03T00:33:21;3.50;;;2.05;;
23578;SDS011;11967;50.852;4.400;2022-09-03T00:38:30;4.93;;;2.13;;
23578;SDS011;11967;50.852;4.400;2022-09-03T00:44:07;3.17;;;2.00;;
23578;SDS011;11967;50.852;4.400;2022-09-03T00:52:11;4.20;;;2.42;;
23578;SDS011;11967;50.852;4.400;2022-09-03T00:54:52;3.22;;;2.22;;
23578;SDS011;11967;50.852;4.400;2022-09-03T01:00:25;3.00;;;2.00;;
23578;SDS011;11967;50.852;4.400;2022-09-03T01:06:17;3.17;;;1.92;;
23578;SDS011;11967;50.852;4.400;2022-09-03T01:11:54;4.05;;;2.00;;
23578;SDS011;11967;50.852;4.400;2022-09-03T01:14:56;5.20;;;2.15;;
23578;SDS011;11967;50.852;4.400;2022-09-03T01:20:46;5.05;;;2.03;;
23578;SDS011;11967;50.852;4.400;2022-09-03T01:29:22;5.32;;;2.38;;
23578;SDS011;11967;50.852;4.400;2022-09-03T01:34:37;4.47;;;2.30;;
23578;SDS011;11967;50.852;4.400;2022-09-03T01:42:49;4.63;;;2.53;;
23578;SDS011;11967;50.852;4.400;2022-09-03T01:48:09;4.05;;;2.70;;
23578;SDS011;11967;50.852;4.400;2022-09-03T01:50:56;6.15;;;2.60;;
23578;SDS011;11967;50.852;4.400;2022-09-03T01:56:21;6.45;;;2.80;;
23578;SDS011;11967;50.852;4.400;2022-09-03T01:59:14;5.80;;;2.90;;
23578;SDS011;11967;50.852;4.400;2022-09-03T02:04:36;8.50;;;3.03;;
23578;SDS011;11967;50.852;4.400;2022-09-03T02:07:02;6.18;;;2.83;;
23578;SDS011;11967;50.852;4.400;2022-09-03T02:09:29;6.20;;;2.85;;
23578;SDS011;11967;50.852;4.400;2022-09-03T02:12:07;9.30;;;3.10;;
23578;SDS011;11967;50.852;4.400;2022-09-03T02:14:40;6.85;;;3.65;;
23578;SDS011;11967;50.852;4.400;2022-09-03T02:17:06;7.43;;;4.00;;
23578;SDS011;11967;50.852;4.400;2022-09-03T02:19:33;5.20;;;3.60;;
23578;SDS011;11967;50.852;4.400;2022-09-03T02:22:01;10.60;;;4.30;;
23578;SDS011;11967;50.852;4.400;2022-09-03T02:24:28;5.38;;;4.15;;
23578;SDS011;11967;50.852;4.400;2022-09-03T02:26:53;5.30;;;4.00;;
23578;SDS011;11967;50.852;4.400;2022-09-03T02:29:20;8.98;;;4.28;;
23578;SDS011;11967;50.852;4.400;2022-09-03T02:31:46;9.63;;;4.75;;
23578;SDS011;11967;50.852;4.400;2022-09-03T02:34:12;11.68;;;5.07;;
23578;SDS011;11967;50.852;4.400;2022-09-03T02:36:39;10.20;;;6.07;;
23578;SDS011;11967;50.852;4.400;2022-09-03T02:39:06;13.38;;;5.82;;
23578;SDS011;11967;50.852;4.400;2022-09-03T02:41:32;8.05;;;5.35;;
23578;SDS011;11967;50.852;4.400;2022-09-03T02:44:06;11.23;;;5.93;;
23578;SDS011;11967;50.852;4.400;2022-09-03T02:46:47;8.70;;;6.13;;
23578;SDS011;11967;50.852;4.400;2022-09-03T02:49:17;10.57;;;6.43;;
23578;SDS011;11967;50.852;4.400;2022-09-03T02:51:43;12.20;;;5.47;;
23578;SDS011;11967;50.852;4.400;2022-09-03T02:54:09;11.57;;;5.47;;
23578;SDS011;11967;50.852;4.400;2022-09-03T02:56:35;10.27;;;5.57;;
23578;SDS011;11967;50.852;4.400;2022-09-03T02:59:02;10.98;;;5.75;;
23578;SDS011;11967;50.852;4.400;2022-09-03T03:01:29;8.93;;;5.53;;
23578;SDS011;11967;50.852;4.400;2022-09-03T03:03:54;12.40;;;5.85;;
23578;SDS011;11967;50.852;4.400;2022-09-03T03:06:20;10.75;;;5.97;;
23578;SDS011;11967;50.852;4.400;2022-09-03T03:08:46;11.20;;;6.00;;
23578;SDS011;11967;50.852;4.400;2022-09-03T03:11:14;10.48;;;5.78;;
23578;SDS011;11967;50.852;4.400;2022-09-03T03:13:42;9.48;;;5.85;;
23578;SDS011;11967;50.852;4.400;2022-09-03T03:16:09;9.65;;;5.78;;
23578;SDS011;11967;50.852;4.400;2022-09-03T03:18:35;8.75;;;5.68;;
23578;SDS011;11967;50.852;4.400;2022-09-03T03:21:05;6.63;;;5.00;;
23578;SDS011;11967;50.852;4.400;2022-09-03T03:23:33;10.50;;;5.10;;
23578;SDS011;11967;50.852;4.400;2022-09-03T03:26:02;7.63;;;4.72;;
23578;SDS011;11967;50.852;4.400;2022-09-03T03:28:30;10.77;;;4.70;;
23578;SDS011;11967;50.852;4.400;2022-09-03T03:30:57;11.75;;;5.18;;
23578;SDS011;11967;50.852;4.400;2022-09-03T03:33:36;7.53;;;4.60;;
23578;SDS011;11967;50.852;4.400;2022-09-03T03:36:06;9.25;;;4.97;;
23578;SDS011;11967;50.852;4.400;2022-09-03T03:38:34;8.13;;;4.60;;
23578;SDS011;11967;50.852;4.400;2022-09-03T03:43:35;9.30;;;4.25;;
23578;SDS011;11967;50.852;4.400;2022-09-03T03:46:01;7.00;;;4.32;;
23578;SDS011;11967;50.852;4.400;2022-09-03T03:48:26;6.80;;;3.83;;
23578;SDS011;11967;50.852;4.400;2022-09-03T03:50:52;5.35;;;3.80;;
23578;SDS011;11967;50.852;4.400;2022-09-03T03:53:18;9.68;;;4.18;;
23578;SDS011;11967;50.852;4.400;2022-09-03T03:55:53;9.40;;;3.75;;
23578;SDS011;11967;50.852;4.400;2022-09-03T03:58:19;5.93;;;3.90;;
23578;SDS011;11967;50.852;4.400;2022-09-03T04:00:45;5.95;;;3.53;;
23578;SDS011;11967;50.852;4.400;2022-09-03T04:03:13;5.53;;;3.67;;
23578;SDS011;11967;50.852;4.400;2022-09-03T04:05:39;4.55;;;3.80;;
23578;SDS011;11967;50.852;4.400;2022-09-03T04:08:04;5.53;;;3.40;;
23578;SDS011;11967;50.852;4.400;2022-09-03T04:10:30;5.47;;;2.85;;
23578;SDS011;11967;50.852;4.400;2022-09-03T04:12:56;5.75;;;2.65;;
23578;SDS011;11967;50.852;4.400;2022-09-03T04:15:21;4.93;;;2.60;;
23578;SDS011;11967;50.852;4.400;2022-09-03T04:17:47;4.95;;;3.00;;
23578;SDS011;11967;50.852;4.400;2022-09-03T04:20:13;5.80;;;2.60;;
23578;SDS011;11967;50.852;4.400;2022-09-03T04:22:38;3.85;;;2.70;;
23578;SDS011;11967;50.852;4.400;2022-09-03T04:25:04;6.22;;;2.33;;
23578;SDS011;11967;50.852;4.400;2022-09-03T04:27:30;2.55;;;2.35;;
23578;SDS011;11967;50.852;4.400;2022-09-03T04:29:55;4.18;;;2.75;;
23578;SDS011;11967;50.852;4.400;2022-09-03T04:32:22;6.10;;;2.90;;
23578;SDS011;11967;50.852;4.400;2022-09-03T04:35:07;7.20;;;3.30;;
23578;SDS011;11967;50.852;4.400;2022-09-03T04:37:32;3.97;;;2.95;;
23578;SDS011;11967;50.852;4.400;2022-09-03T04:39:58;4.60;;;3.17;;
23578;SDS011;11967;50.852;4.400;2022-09-03T04:42:24;3.92;;;2.85;;
23578;SDS011;11967;50.852;4.400;2022-09-03T04:44:49;4.15;;;3.20;;
23578;SDS011;11967;50.852;4.400;2022-09-03T04:47:15;5.47;;;3.33;;
23578;SDS011;11967;50.852;4.400;2022-09-03T04:49:41;4.70;;;2.80;;
23578;SDS011;11967;50.852;4.400;2022-09-03T04:52:07;5.85;;;3.10;;
23578;SDS011;11967;50.852;4.400;2022-09-03T04:54:34;6.93;;;3.30;;
23578;SDS011;11967;50.852;4.400;2022-09-03T04:57:00;4.90;;;3.50;;
23578;SDS011;11967;50.852;4.400;2022-09-03T04:59:26;4.07;;;3.00;;
23578;SDS011;11967;50.852;4.400;2022-09-03T05:01:52;6.50;;;3.25;;
23578;SDS011;11967;50.852;4.400;2022-09-03T05:04:17;4.78;;;3.50;;
23578;SDS011;11967;50.852;4.400;2022-09-03T05:06:44;5.53;;;3.65;;
23578;SDS011;11967;50.852;4.400;2022-09-03T05:09:10;6.65;;;3.35;;
23578;SDS011;11967;50.852;4.400;2022-09-03T05:11:35;5.75;;;3.50;;
23578;SDS011;11967;50.852;4.400;2022-09-03T05:14:01;7.50;;;3.40;;
23578;SDS011;11967;50.852;4.400;2022-09-03T05:16:28;5.22;;;3.50;;
23578;SDS011;11967;50.852;4.400;2022-09-03T05:18:55;5.05;;;2.90;;
23578;SDS011;11967;50.852;4.400;2022-09-03T05:21:23;4.60;;;2.72;;
23578;SDS011;11967;50.852;4.400;2022-09-03T05:23:50;8.20;;;3.28;;
23578;SDS011;11967;50.852;4.400;2022-09-03T05:26:18;6.20;;;2.97;;
23578;SDS011;11967;50.852;4.400;2022-09-03T05:28:45;6.07;;;3.33;;
23578;SDS011;11967;50.852;4.400;2022-09-03T05:31:13;4.10;;;2.90;;
23578;SDS011;11967;50.852;4.400;2022-09-03T05:33:41;4.78;;;2.90;;
23578;SDS011;11967;50.852;4.400;2022-09-03T05:36:12;5.53;;;3.00;;
23578;SDS011;11967;50.852;4.400;2022-09-03T05:38:39;9.40;;;3.38;;
23578;SDS011;11967;50.852;4.400;2022-09-03T05:41:06;5.55;;;3.13;;
23578;SDS011;11967;50.852;4.400;2022-09-03T05:43:33;5.95;;;3.40;;
23578;SDS011;11967;50.852;4.400;2022-09-03T05:46:00;3.95;;;3.47;;
23578;SDS011;11967;50.852;4.400;2022-09-03T05:48:31;4.90;;;3.30;;
23578;SDS011;11967;50.852;4.400;2022-09-03T05:51:02;4.72;;;3.25;;
23578;SDS011;11967;50.852;4.400;2022-09-03T05:53:28;6.82;;;3.38;;
23578;SDS011;11967;50.852;4.400;2022-09-03T05:55:57;8.05;;;3.33;;
23578;SDS011;11967;50.852;4.400;2022-09-03T05:58:24;6.55;;;3.45;;
23578;SDS011;11967;50.852;4.400;2022-09-03T06:00:55;8.80;;;3.97;;
23578;SDS011;11967;50.852;4.400;2022-09-03T06:03:20;5.18;;;3.67;;
23578;SDS011;11967;50.852;4.400;2022-09-03T06:05:50;4.95;;;3.90;;
23578;SDS011;11967;50.852;4.400;2022-09-03T06:08:17;7.28;;;3.67;;
23578;SDS011;11967;50.852;4.400;2022-09-03T06:10:43;6.88;;;3.35;;
23578;SDS011;11967;50.852;4.400;2022-09-03T06:13:08;6.00;;;3.40;;
23578;SDS011;11967;50.852;4.400;2022-09-03T06:15:34;7.28;;;3.50;;
23578;SDS011;11967;50.852;4.400;2022-09-03T06:18:00;7.68;;;3.28;;
23578;SDS011;11967;50.852;4.400;2022-09-03T06:20:25;6.07;;;3.50;;
23578;SDS011;11967;50.852;4.400;2022-09-03T06:22:53;6.45;;;3.35;;
23578;SDS011;11967;50.852;4.400;2022-09-03T06:25:19;4.95;;;3.80;;
23578;SDS011;11967;50.852;4.400;2022-09-03T06:27:45;5.43;;;4.00;;
23578;SDS011;11967;50.852;4.400;2022-09-03T06:30:11;5.85;;;3.40;;
23578;SDS011;11967;50.852;4.400;2022-09-03T06:32:47;5.88;;;3.70;;
23578;SDS011;11967;50.852;4.400;2022-09-03T06:35:16;7.78;;;3.70;;
23578;SDS011;11967;50.852;4.400;2022-09-03T06:37:42;8.07;;;3.97;;
23578;SDS011;11967;50.852;4.400;2022-09-03T06:40:09;4.22;;;3.45;;
23578;SDS011;11967;50.852;4.400;2022-09-03T06:42:40;6.25;;;3.35;;
23578;SDS011;11967;50.852;4.400;2022-09-03T06:45:09;5.90;;;3.60;;
23578;SDS011;11967;50.852;4.400;2022-09-03T06:47:35;6.85;;;3.70;;
23578;SDS011;11967;50.852;4.400;2022-09-03T06:50:01;5.25;;;3.33;;
23578;SDS011;11967;50.852;4.400;2022-09-03T06:52:27;7.15;;;3.15;;
23578;SDS011;11967;50.852;4.400;2022-09-03T06:54:53;5.90;;;3.60;;
23578;SDS011;11967;50.852;4.400;2022-09-03T06:57:19;5.47;;;3.50;;
23578;SDS011;11967;50.852;4.400;2022-09-03T06:59:45;5.90;;;3.35;;
23578;SDS011;11967;50.852;4.400;2022-09-03T07:02:11;6.93;;;3.38;;
23578;SDS011;11967;50.852;4.400;2022-09-03T07:04:37;4.95;;;2.80;;
23578;SDS011;11967;50.852;4.400;2022-09-03T07:07:03;5.65;;;3.20;;
23578;SDS011;11967;50.852;4.400;2022-09-03T07:09:28;5.47;;;3.45;;
23578;SDS011;11967;50.852;4.400;2022-09-03T07:11:56;6.70;;;3.45;;
23578;SDS011;11967;50.852;4.400;2022-09-03T07:14:21;5.57;;;3.40;;
23578;SDS011;11967;50.852;4.400;2022-09-03T07:16:48;5.15;;;3.10;;
23578;SDS011;11967;50.852;4.400;2022-09-03T07:19:14;6.05;;;3.17;;
23578;SDS011;11967;50.852;4.400;2022-09-03T07:21:40;6.13;;;3.47;;
23578;SDS011;11967;50.852;4.400;2022-09-03T07:24:07;3.80;;;3.13;;
23578;SDS011;11967;50.852;4.400;2022-09-03T07:26:35;7.75;;;3.15;;
23578;SDS011;11967;50.852;4.400;2022-09-03T07:29:02;4.15;;;3.00;;
23578;SDS011;11967;50.852;4.400;2022-09-03T07:31:29;6.95;;;3.10;;
23578;SDS011;11967;50.852;4.400;2022-09-03T07:34:00;7.60;;;3.45;;
23578;SDS011;11967;50.852;4.400;2022-09-03T07:36:30;7.28;;;3.33;;
23578;SDS011;11967;50.852;4.400;2022-09-03T07:39:11;4.38;;;3.10;;
23578;SDS011;11967;50.852;4.400;2022-09-03T07:41:39;7.57;;;3.30;;
23578;SDS011;11967;50.852;4.400;2022-09-03T07:44:09;5.43;;;3.60;;
23578;SDS011;11967;50.852;4.400;2022-09-03T07:46:36;4.43;;;3.03;;
23578;SDS011;11967;50.852;4.400;2022-09-03T07:49:03;4.55;;;2.90;;
23578;SDS011;11967;50.852;4.400;2022-09-03T07:51:31;7.60;;;3.30;;
23578;SDS011;11967;50.852;4.400;2022-09-03T07:54:00;4.50;;;2.72;;
23578;SDS011;11967;50.852;4.400;2022-09-03T07:56:27;5.13;;;3.22;;
23578;SDS011;11967;50.852;4.400;2022-09-03T07:58:57;7.50;;;3.03;;
23578;SDS011;11967;50.852;4.400;2022-09-03T08:01:23;9.75;;;3.22;;
23578;SDS011;11967;50.852;4.400;2022-09-03T08:03:52;5.90;;;3.30;;
23578;SDS011;11967;50.852;4.400;2022-09-03T08:06:20;6.18;;;3.40;;
23578;SDS011;11967;50.852;4.400;2022-09-03T08:08:47;6.00;;;3.28;;
23578;SDS011;11967;50.852;4.400;2022-09-03T08:11:17;7.20;;;3.13;;
23578;SDS011;11967;50.852;4.400;2022-09-03T08:13:53;6.95;;;3.22;;
23578;SDS011;11967;50.852;4.400;2022-09-03T08:16:25;6.05;;;3.50;;
23578;SDS011;11967;50.852;4.400;2022-09-03T08:18:51;5.80;;;3.10;;
23578;SDS011;11967;50.852;4.400;2022-09-03T08:21:17;8.93;;;3.63;;
23578;SDS011;11967;50.852;4.400;2022-09-03T08:23:44;6.22;;;3.30;;
23578;SDS011;11967;50.852;4.400;2022-09-03T08:26:12;7.20;;;3.25;;
23578;SDS011;11967;50.852;4.400;2022-09-03T08:28:38;7.68;;;3.97;;
23578;SDS011;11967;50.852;4.400;2022-09-03T08:33:31;7.90;;;3.60;;
23578;SDS011;11967;50.852;4.400;2022-09-03T08:36:06;7.63;;;4.40;;
23578;SDS011;11967;50.852;4.400;2022-09-03T08:38:35;7.03;;;3.83;;
23578;SDS011;11967;50.852;4.400;2022-09-03T08:44:05;7.57;;;3.78;;
23578;SDS011;11967;50.852;4.400;2022-09-03T08:46:54;10.50;;;3.72;;
23578;SDS011;11967;50.852;4.400;2022-09-03T08:49:23;6.22;;;3.88;;
23578;SDS011;11967;50.852;4.400;2022-09-03T08:51:50;7.32;;;3.97;;
23578;SDS011;11967;50.852;4.400;2022-09-03T08:54:19;10.90;;;4.07;;
23578;SDS011;11967;50.852;4.400;2022-09-03T08:56:48;8.32;;;3.75;;
23578;SDS011;11967;50.852;4.400;2022-09-03T08:59:14;9.55;;;4.57;;
23578;SDS011;11967;50.852;4.400;2022-09-03T09:01:48;9.18;;;4.60;;
23578;SDS011;11967;50.852;4.400;2022-09-03T09:04:23;6.45;;;4.55;;
23578;SDS011;11967;50.852;4.400;2022-09-03T09:07:11;9.10;;;4.43;;
23578;SDS011;11967;50.852;4.400;2022-09-03T09:09:52;9.18;;;5.00;;
23578;SDS011;11967;50.852;4.400;2022-09-03T09:21:33;7.10;;;4.18;;
23578;SDS011;11967;50.852;4.400;2022-09-03T09:24:11;9.35;;;5.00;;
23578;SDS011;11967;50.852;4.400;2022-09-03T09:26:45;9.80;;;4.88;;
23578;SDS011;11967;50.852;4.400;2022-09-03T09:29:13;6.85;;;4.38;;
23578;SDS011;11967;50.852;4.400;2022-09-03T09:31:39;8.55;;;5.10;;
23578;SDS011;11967;50.852;4.400;2022-09-03T09:34:09;14.65;;;5.00;;
23578;SDS011;11967;50.852;4.400;2022-09-03T09:36:42;9.98;;;5.25;;
23578;SDS011;11967;50.852;4.400;2022-09-03T09:39:12;8.05;;;4.50;;
23578;SDS011;11967;50.852;4.400;2022-09-03T09:41:40;9.35;;;4.60;;
23578;SDS011;11967;50.852;4.400;2022-09-03T09:44:07;7.57;;;5.15;;
23578;SDS011;11967;50.852;4.400;2022-09-03T09:46:43;7.55;;;4.80;;
23578;SDS011;11967;50.852;4.400;2022-09-03T09:52:07;8.18;;;5.38;;
23578;SDS011;11967;50.852;4.400;2022-09-03T09:54:37;8.07;;;5.63;;
23578;SDS011;11967;50.852;4.400;2022-09-03T09:57:05;6.40;;;4.72;;
23578;SDS011;11967;50.852;4.400;2022-09-03T09:59:33;7.28;;;5.18;;
23578;SDS011;11967;50.852;4.400;2022-09-03T10:04:51;7.70;;;5.13;;
23578;SDS011;11967;50.852;4.400;2022-09-03T10:13:05;6.78;;;4.68;;
23578;SDS011;11967;50.852;4.400;2022-09-03T10:15:54;8.07;;;5.07;;
23578;SDS011;11967;50.852;4.400;2022-09-03T10:21:52;8.30;;;4.97;;
23578;SDS011;11967;50.852;4.400;2022-09-03T10:27:05;7.53;;;4.80;;
23578;SDS011;11967;50.852;4.400;2022-09-03T10:29:36;7.05;;;5.10;;
23578;SDS011;11967;50.852;4.400;2022-09-03T10:45:58;9.95;;;5.35;;
23578;SDS011;11967;50.852;4.400;2022-09-03T10:51:24;8.75;;;5.80;;
23578;SDS011;11967;50.852;4.400;2022-09-03T10:56:55;9.00;;;5.78;;
23578;SDS011;11967;50.852;4.400;2022-09-03T11:05:13;7.95;;;5.22;;
23578;SDS011;11967;50.852;4.400;2022-09-03T11:07:50;7.47;;;5.03;;
23578;SDS011;11967;50.852;4.400;2022-09-03T11:10:32;9.73;;;5.85;;
23578;SDS011;11967;50.852;4.400;2022-09-03T11:18:24;9.82;;;5.80;;
23578;SDS011;11967;50.852;4.400;2022-09-03T11:20:56;6.60;;;5.00;;
23578;SDS011;11967;50.852;4.400;2022-09-03T11:23:28;7.50;;;5.00;;
23578;SDS011;11967;50.852;4.400;2022-09-03T11:25:58;7.20;;;5.53;;
23578;SDS011;11967;50.852;4.400;2022-09-03T11:31:33;7.82;;;5.28;;
23578;SDS011;11967;50.852;4.400;2022-09-03T11:34:26;8.73;;;5.30;;
23578;SDS011;11967;50.852;4.400;2022-09-03T11:37:04;8.15;;;5.18;;
23578;SDS011;11967;50.852;4.400;2022-09-03T11:39:38;7.63;;;5.47;;
23578;SDS011;11967;50.852;4.400;2022-09-03T11:42:11;6.72;;;5.03;;
23578;SDS011;11967;50.852;4.400;2022-09-03T11:44:49;8.98;;;5.43;;
23578;SDS011;11967;50.852;4.400;2022-09-03T11:49:45;6.72;;;4.57;;
23578;SDS011;11967;50.852;4.400;2022-09-03T11:52:28;6.35;;;4.78;;
23578;SDS011;11967;50.852;4.400;2022-09-03T11:55:04;5.25;;;4.55;;
23578;SDS011;11967;50.852;4.400;2022-09-03T11:57:31;9.63;;;4.57;;
23578;SDS011;11967;50.852;4.400;2022-09-03T12:00:13;8.50;;;4.25;;
23578;SDS011;11967;50.852;4.400;2022-09-03T12:11:09;6.20;;;4.75;;
23578;SDS011;11967;50.852;4.400;2022-09-03T12:18:49;8.32;;;4.90;;
23578;SDS011;11967;50.852;4.400;2022-09-03T12:21:17;7.78;;;5.18;;
23578;SDS011;11967;50.852;4.400;2022-09-03T12:26:15;7.55;;;5.40;;
23578;SDS011;11967;50.852;4.400;2022-09-03T12:28:50;5.95;;;5.22;;
23578;SDS011;11967;50.852;4.400;2022-09-03T12:33:55;6.35;;;4.72;;
23578;SDS011;11967;50.852;4.400;2022-09-03T12:36:23;8.10;;;4.75;;
23578;SDS011;11967;50.852;4.400;2022-09-03T12:38:49;12.10;;;5.85;;
23578;SDS011;11967;50.852;4.400;2022-09-03T12:41:19;7.18;;;5.20;;
23578;SDS011;11967;50.852;4.400;2022-09-03T12:43:50;6.95;;;5.20;;
23578;SDS011;11967;50.852;4.400;2022-09-03T12:46:30;11.55;;;5.75;;
23578;SDS011;11967;50.852;4.400;2022-09-03T12:49:01;7.45;;;5.80;;
23578;SDS011;11967;50.852;4.400;2022-09-03T12:51:30;10.18;;;6.95;;
23578;SDS011;11967;50.852;4.400;2022-09-03T12:54:01;8.90;;;6.78;;
23578;SDS011;11967;50.852;4.400;2022-09-03T12:56:31;8.30;;;6.65;;
23578;SDS011;11967;50.852;4.400;2022-09-03T12:59:06;5.93;;;5.32;;
23578;SDS011;11967;50.852;4.400;2022-09-03T13:01:57;7.75;;;5.63;;
23578;SDS011;11967;50.852;4.400;2022-09-03T13:04:31;8.07;;;5.13;;
23578;SDS011;11967;50.852;4.400;2022-09-03T13:07:01;9.45;;;5.65;;
23578;SDS011;11967;50.852;4.400;2022-09-03T13:09:31;6.70;;;4.75;;
23578;SDS011;11967;50.852;4.400;2022-09-03T13:11:59;5.95;;;4.90;;
23578;SDS011;11967;50.852;4.400;2022-09-03T13:14:29;7.93;;;4.70;;
23578;SDS011;11967;50.852;4.400;2022-09-03T13:17:29;5.10;;;4.60;;
23578;SDS011;11967;50.852;4.400;2022-09-03T13:20:27;6.03;;;5.20;;
23578;SDS011;11967;50.852;4.400;2022-09-03T13:29:17;7.28;;;4.03;;
23578;SDS011;11967;50.852;4.400;2022-09-03T13:31:45;7.25;;;4.15;;
23578;SDS011;11967;50.852;4.400;2022-09-03T13:37:09;6.60;;;4.20;;
23578;SDS011;11967;50.852;4.400;2022-09-03T13:42:40;5.40;;;3.60;;
23578;SDS011;11967;50.852;4.400;2022-09-03T13:45:27;6.78;;;3.50;;
23578;SDS011;11967;50.852;4.400;2022-09-03T13:51:29;4.25;;;3.40;;
23578;SDS011;11967;50.852;4.400;2022-09-03T13:54:06;5.53;;;3.38;;
23578;SDS011;11967;50.852;4.400;2022-09-03T13:57:02;6.30;;;3.13;;
23578;SDS011;11967;50.852;4.400;2022-09-03T14:02:21;7.35;;;5.38;;
23578;SDS011;11967;50.852;4.400;2022-09-03T14:05:12;6.32;;;3.53;;
23578;SDS011;11967;50.852;4.400;2022-09-03T14:07:46;4.75;;;2.90;;
23578;SDS011;11967;50.852;4.400;2022-09-03T14:16:30;6.30;;;3.03;;
23578;SDS011;11967;50.852;4.400;2022-09-03T14:19:11;4.68;;;2.78;;
23578;SDS011;11967;50.852;4.400;2022-09-03T14:22:04;3.67;;;2.50;;
23578;SDS011;11967;50.852;4.400;2022-09-03T14:24:35;3.28;;;2.50;;
23578;SDS011;11967;50.852;4.400;2022-09-03T14:27:20;4.20;;;2.63;;
23578;SDS011;11967;50.852;4.400;2022-09-03T14:30:15;4.22;;;2.60;;
23578;SDS011;11967;50.852;4.400;2022-09-03T14:59:51;5.28;;;3.50;;
23578;SDS011;11967;50.852;4.400;2022-09-03T15:05:08;5.40;;;3.95;;
23578;SDS011;11967;50.852;4.400;2022-09-03T15:07:48;8.00;;;3.80;;
23578;SDS011;11967;50.852;4.400;2022-09-03T15:10:20;7.25;;;4.45;;
23578;SDS011;11967;50.852;4.400;2022-09-03T15:13:08;9.75;;;4.45;;
23578;SDS011;11967;50.852;4.400;2022-09-03T15:21:05;8.23;;;4.30;;
23578;SDS011;11967;50.852;4.400;2022-09-03T15:27:16;6.60;;;4.97;;
23578;SDS011;11967;50.852;4.400;2022-09-03T15:41:10;6.68;;;5.38;;
23578;SDS011;11967;50.852;4.400;2022-09-03T15:44:05;6.53;;;5.43;;
23578;SDS011;11967;50.852;4.400;2022-09-03T15:58:00;5.82;;;4.30;;
23578;SDS011;11967;50.852;4.400;2022-09-03T16:04:10;6.18;;;3.80;;
23578;SDS011;11967;50.852;4.400;2022-09-03T16:09:07;6.60;;;3.30;;
23578;SDS011;11967;50.852;4.400;2022-09-03T16:12:05;5.70;;;3.15;;
23578;SDS011;11967;50.852;4.400;2022-09-03T16:14:57;4.35;;;3.53;;
23578;SDS011;11967;50.852;4.400;2022-09-03T16:17:30;4.25;;;3.50;;
23578;SDS011;11967;50.852;4.400;2022-09-03T16:20:06;6.68;;;3.90;;
23578;SDS011;11967;50.852;4.400;2022-09-03T16:25:31;4.85;;;3.80;;
23578;SDS011;11967;50.852;4.400;2022-09-03T16:33:38;7.75;;;3.88;;
23578;SDS011;11967;50.852;4.400;2022-09-03T16:36:30;6.30;;;4.57;;
23578;SDS011;11967;50.852;4.400;2022-09-03T16:41:46;5.95;;;4.35;;
23578;SDS011;11967;50.852;4.400;2022-09-03T16:55:33;4.75;;;3.63;;
23578;SDS011;11967;50.852;4.400;2022-09-03T17:01:52;8.15;;;4.75;;
23578;SDS011;11967;50.852;4.400;2022-09-03T17:07:23;7.30;;;5.38;;
23578;SDS011;11967;50.852;4.400;2022-09-03T17:21:31;9.63;;;4.00;;
23578;SDS011;11967;50.852;4.400;2022-09-03T17:27:00;8.00;;;5.40;;
23578;SDS011;11967;50.852;4.400;2022-09-03T17:29:49;10.07;;;5.37;;
23578;SDS011;11967;50.852;4.400;2022-09-03T17:43:26;5.20;;;3.70;;
23578;SDS011;11967;50.852;4.400;2022-09-03T17:46:27;4.88;;;3.92;;
23578;SDS011;11967;50.852;4.400;2022-09-03T17:49:29;5.13;;;3.55;;
23578;SDS011;11967;50.852;4.400;2022-09-03T17:54:34;4.63;;;3.88;;
23578;SDS011;11967;50.852;4.400;2022-09-03T17:57:26;5.35;;;3.90;;
23578;SDS011;11967;50.852;4.400;2022-09-03T18:00:10;6.68;;;4.60;;
23578;SDS011;11967;50.852;4.400;2022-09-03T18:03:00;6.40;;;4.50;;
23578;SDS011;11967;50.852;4.400;2022-09-03T18:12:06;7.40;;;4.03;;
23578;SDS011;11967;50.852;4.400;2022-09-03T18:16:54;6.72;;;4.10;;
23578;SDS011;11967;50.852;4.400;2022-09-03T18:19:33;8.68;;;4.70;;
23578;SDS011;11967;50.852;4.400;2022-09-03T18:22:24;7.93;;;4.40;;
23578;SDS011;11967;50.852;4.400;2022-09-03T18:25:15;8.95;;;4.43;;
23578;SDS011;11967;50.852;4.400;2022-09-03T18:28:05;7.93;;;4.85;;
23578;SDS011;11967;50.852;4.400;2022-09-03T18:30:52;5.57;;;3.90;;
23578;SDS011;11967;50.852;4.400;2022-09-03T18:33:36;5.40;;;3.35;;
23578;SDS011;11967;50.852;4.400;2022-09-03T18:36:21;10.15;;;3.60;;
23578;SDS011;11967;50.852;4.400;2022-09-03T18:39:19;5.07;;;3.20;;
23578;SDS011;11967;50.852;4.400;2022-09-03T18:45:32;5.60;;;3.38;;
23578;SDS011;11967;50.852;4.400;2022-09-03T18:57:22;4.72;;;2.67;;
23578;SDS011;11967;50.852;4.400;2022-09-03T19:00:13;3.65;;;2.63;;
23578;SDS011;11967;50.852;4.400;2022-09-03T19:05:55;3.25;;;2.20;;
23578;SDS011;11967;50.852;4.400;2022-09-03T19:09:05;3.45;;;2.45;;
23578;SDS011;11967;50.852;4.400;2022-09-03T19:12:21;4.13;;;2.60;;
23578;SDS011;11967;50.852;4.400;2022-09-03T19:21:46;3.63;;;2.33;;
23578;SDS011;11967;50.852;4.400;2022-09-03T19:24:35;3.35;;;2.67;;
23578;SDS011;11967;50.852;4.400;2022-09-03T19:33:35;6.47;;;2.67;;
23578;SDS011;11967;50.852;4.400;2022-09-03T19:51:38;3.72;;;3.05;;
23578;SDS011;11967;50.852;4.400;2022-09-03T19:54:44;6.10;;;3.30;;
23578;SDS011;11967;50.852;4.400;2022-09-03T19:57:34;5.43;;;3.72;;
23578;SDS011;11967;50.852;4.400;2022-09-03T20:00:19;6.63;;;3.88;;
23578;SDS011;11967;50.852;4.400;2022-09-03T20:03:06;6.15;;;3.08;;
23578;SDS011;11967;50.852;4.400;2022-09-03T20:05:50;6.82;;;3.30;;
23578;SDS011;11967;50.852;4.400;2022-09-03T20:08:35;5.22;;;3.97;;
23578;SDS011;11967;50.852;4.400;2022-09-03T20:11:20;6.43;;;4.00;;
23578;SDS011;11967;50.852;4.400;2022-09-03T20:13:46;4.90;;;3.58;;
23578;SDS011;11967;50.852;4.400;2022-09-03T20:16:34;5.45;;;4.20;;
23578;SDS011;11967;50.852;4.400;2022-09-03T20:25:19;8.48;;;4.50;;
23578;SDS011;11967;50.852;4.400;2022-09-03T20:30:45;7.03;;;4.00;;
23578;SDS011;11967;50.852;4.400;2022-09-03T20:47:50;5.15;;;4.15;;
23578;SDS011;11967;50.852;4.400;2022-09-03T20:56:00;6.40;;;4.50;;
23578;SDS011;11967;50.852;4.400;2022-09-03T21:01:50;5.53;;;4.53;;
23578;SDS011;11967;50.852;4.400;2022-09-03T21:07:06;6.18;;;4.82;;
23578;SDS011;11967;50.852;4.400;2022-09-03T21:15:18;6.70;;;4.72;;
23578;SDS011;11967;50.852;4.400;2022-09-03T21:23:24;7.07;;;3.85;;
23578;SDS011;11967;50.852;4.400;2022-09-03T21:26:02;7.05;;;3.80;;
23578;SDS011;11967;50.852;4.400;2022-09-03T21:28:43;5.75;;;3.47;;
23578;SDS011;11967;50.852;4.400;2022-09-03T21:31:19;4.15;;;3.28;;
23578;SDS011;11967;50.852;4.400;2022-09-03T21:33:49;6.68;;;3.10;;
23578;SDS011;11967;50.852;4.400;2022-09-03T21:39:14;3.83;;;3.08;;
23578;SDS011;11967;50.852;4.400;2022-09-03T21:41:46;3.88;;;3.15;;
23578;SDS011;11967;50.852;4.400;2022-09-03T21:47:15;4.80;;;2.80;;
23578;SDS011;11967;50.852;4.400;2022-09-03T21:49:59;4.70;;;3.05;;
23578;SDS011;11967;50.852;4.400;2022-09-03T21:53:01;4.65;;;3.30;;
23578;SDS011;11967;50.852;4.400;2022-09-03T21:58:28;5.40;;;2.90;;
23578;SDS011;11967;50.852;4.400;2022-09-03T22:01:12;5.30;;;3.00;;